sensor_id;sensor_type;location;lat;lon;timestamp;P1;durP1;ratioP1;P2;durP2;ratioP2
24143;SDS011;12307;50.828;6.080;2022-12-07T00:01:29;2.25;;;1.83;;
24143;SDS011;12307;50.828;6.080;2022-12-07T00:03:56;2.17;;;1.60;;
24143;SDS011;12307;50.828;6.080;2022-12-07T00:06:29;2.08;;;1.75;;
24143;SDS011;12307;50.828;6.080;2022-12-07T00:08:55;2.85;;;1.88;;
24143;SDS011;12307;50.828;6.080;2022-12-07T00:11:21;2.15;;;1.88;;
24143;SDS011;12307;50.828;6.080;2022-12-07T00:13:50;2.78;;;1.90;;
24143;SDS011;12307;50.828;6.080;2022-12-07T00:16:19;2.55;;;1.90;;
24143;SDS011;12307;50.828;6.080;2022-12-07T00:18:46;2.70;;;2.00;;
24143;SDS011;12307;50.828;6.080;2022-12-07T00:21:13;2.00;;;1.85;;
24143;SDS011;12307;50.828;6.080;2022-12-07T00:23:40;2.63;;;1.95;;
24143;SDS011;12307;50.828;6.080;2022-12-07T00:26:08;2.35;;;2.05;;
24143;SDS011;12307;50.828;6.080;2022-12-07T00:28:35;2.55;;;1.88;;
24143;SDS011;12307;50.828;6.080;2022-12-07T00:31:03;2.78;;;1.90;;
24143;SDS011;12307;50.828;6.080;2022-12-07T00:33:31;2.92;;;1.90;;
24143;SDS011;12307;50.828;6.080;2022-12-07T00:35:58;2.70;;;1.95;;
24143;SDS011;12307;50.828;6.080;2022-12-07T00:38:24;3.03;;;2.13;;
24143;SDS011;12307;50.828;6.080;2022-12-07T00:40:56;2.53;;;1.90;;
24143;SDS011;12307;50.828;6.080;2022-12-07T00:43:22;2.08;;;1.83;;
24143;SDS011;12307;50.828;6.080;2022-12-07T00:45:48;2.50;;;1.98;;
24143;SDS011;12307;50.828;6.080;2022-12-07T00:48:14;2.75;;;1.80;;
24143;SDS011;12307;50.828;6.080;2022-12-07T00:50:41;2.78;;;2.22;;
24143;SDS011;12307;50.828;6.080;2022-12-07T00:53:06;3.67;;;2.10;;
24143;SDS011;12307;50.828;6.080;2022-12-07T00:55:32;2.75;;;2.20;;
24143;SDS011;12307;50.828;6.080;2022-12-07T00:57:58;2.00;;;1.80;;
24143;SDS011;12307;50.828;6.080;2022-12-07T01:00:24;3.00;;;2.25;;
24143;SDS011;12307;50.828;6.080;2022-12-07T01:02:49;2.38;;;1.98;;
24143;SDS011;12307;50.828;6.080;2022-12-07T01:05:15;2.72;;;2.00;;
24143;SDS011;12307;50.828;6.080;2022-12-07T01:07:42;2.40;;;2.03;;
24143;SDS011;12307;50.828;6.080;2022-12-07T01:10:08;2.28;;;1.90;;
24143;SDS011;12307;50.828;6.080;2022-12-07T01:12:34;2.75;;;2.00;;
24143;SDS011;12307;50.828;6.080;2022-12-07T01:15:00;2.33;;;1.80;;
24143;SDS011;12307;50.828;6.080;2022-12-07T01:17:26;2.15;;;1.77;;
24143;SDS011;12307;50.828;6.080;2022-12-07T01:19:52;2.35;;;2.10;;
24143;SDS011;12307;50.828;6.080;2022-12-07T01:22:18;2.85;;;1.98;;
24143;SDS011;12307;50.828;6.080;2022-12-07T01:24:45;2.17;;;1.98;;
24143;SDS011;12307;50.828;6.080;2022-12-07T01:27:11;3.13;;;2.38;;
24143;SDS011;12307;50.828;6.080;2022-12-07T01:29:37;1.77;;;1.67;;
24143;SDS011;12307;50.828;6.080;2022-12-07T01:32:03;2.58;;;2.00;;
24143;SDS011;12307;50.828;6.080;2022-12-07T01:34:29;2.55;;;1.80;;
24143;SDS011;12307;50.828;6.080;2022-12-07T01:36:54;3.55;;;2.17;;
24143;SDS011;12307;50.828;6.080;2022-12-07T01:39:20;2.10;;;1.80;;
24143;SDS011;12307;50.828;6.080;2022-12-07T01:41:47;3.28;;;1.88;;
24143;SDS011;12307;50.828;6.080;2022-12-07T01:44:15;2.13;;;1.90;;
24143;SDS011;12307;50.828;6.080;2022-12-07T01:46:46;2.53;;;1.80;;
24143;SDS011;12307;50.828;6.080;2022-12-07T01:49:14;2.85;;;2.05;;
24143;SDS011;12307;50.828;6.080;2022-12-07T01:51:43;3.42;;;2.00;;
24143;SDS011;12307;50.828;6.080;2022-12-07T01:54:11;1.92;;;1.73;;
24143;SDS011;12307;50.828;6.080;2022-12-07T01:56:39;2.22;;;2.03;;
24143;SDS011;12307;50.828;6.080;2022-12-07T01:59:09;3.30;;;2.00;;
24143;SDS011;12307;50.828;6.080;2022-12-07T02:01:35;2.03;;;1.83;;
24143;SDS011;12307;50.828;6.080;2022-12-07T02:04:00;2.13;;;1.90;;
24143;SDS011;12307;50.828;6.080;2022-12-07T02:06:27;2.38;;;1.90;;
24143;SDS011;12307;50.828;6.080;2022-12-07T02:08:52;2.72;;;2.03;;
24143;SDS011;12307;50.828;6.080;2022-12-07T02:11:18;3.15;;;1.80;;
24143;SDS011;12307;50.828;6.080;2022-12-07T02:13:44;2.40;;;2.10;;
24143;SDS011;12307;50.828;6.080;2022-12-07T02:16:16;3.78;;;2.10;;
24143;SDS011;12307;50.828;6.080;2022-12-07T02:18:53;2.17;;;1.98;;
24143;SDS011;12307;50.828;6.080;2022-12-07T02:21:27;2.17;;;1.95;;
24143;SDS011;12307;50.828;6.080;2022-12-07T02:27:21;2.30;;;2.10;;
24143;SDS011;12307;50.828;6.080;2022-12-07T02:30:05;2.30;;;2.10;;
24143;SDS011;12307;50.828;6.080;2022-12-07T02:32:35;3.17;;;2.10;;
24143;SDS011;12307;50.828;6.080;2022-12-07T02:35:11;2.00;;;1.80;;
24143;SDS011;12307;50.828;6.080;2022-12-07T02:37:47;2.65;;;1.98;;
24143;SDS011;12307;50.828;6.080;2022-12-07T02:40:18;2.15;;;1.95;;
24143;SDS011;12307;50.828;6.080;2022-12-07T02:42:50;2.50;;;1.83;;
24143;SDS011;12307;50.828;6.080;2022-12-07T02:45:21;3.28;;;2.20;;
24143;SDS011;12307;50.828;6.080;2022-12-07T02:47:51;2.85;;;1.95;;
24143;SDS011;12307;50.828;6.080;2022-12-07T02:50:20;2.65;;;2.20;;
24143;SDS011;12307;50.828;6.080;2022-12-07T02:52:46;2.78;;;2.00;;
24143;SDS011;12307;50.828;6.080;2022-12-07T02:55:12;2.13;;;1.90;;
24143;SDS011;12307;50.828;6.080;2022-12-07T02:57:43;2.30;;;2.10;;
24143;SDS011;12307;50.828;6.080;2022-12-07T03:00:18;2.20;;;1.70;;
24143;SDS011;12307;50.828;6.080;2022-12-07T03:02:49;3.28;;;2.20;;
24143;SDS011;12307;50.828;6.080;2022-12-07T03:05:22;3.20;;;2.30;;
24143;SDS011;12307;50.828;6.080;2022-12-07T03:07:59;4.03;;;2.25;;
24143;SDS011;12307;50.828;6.080;2022-12-07T03:10:33;2.50;;;2.10;;
24143;SDS011;12307;50.828;6.080;2022-12-07T03:13:07;2.33;;;1.90;;
24143;SDS011;12307;50.828;6.080;2022-12-07T03:15:39;2.40;;;1.95;;
24143;SDS011;12307;50.828;6.080;2022-12-07T03:18:13;2.33;;;2.13;;
24143;SDS011;12307;50.828;6.080;2022-12-07T03:20:43;2.10;;;1.90;;
24143;SDS011;12307;50.828;6.080;2022-12-07T03:23:11;2.60;;;2.30;;
24143;SDS011;12307;50.828;6.080;2022-12-07T03:25:40;2.70;;;2.10;;
24143;SDS011;12307;50.828;6.080;2022-12-07T03:28:07;2.28;;;2.08;;
24143;SDS011;12307;50.828;6.080;2022-12-07T03:30:35;2.35;;;1.80;;
24143;SDS011;12307;50.828;6.080;2022-12-07T03:33:07;2.42;;;1.95;;
24143;SDS011;12307;50.828;6.080;2022-12-07T03:35:38;2.28;;;2.08;;
24143;SDS011;12307;50.828;6.080;2022-12-07T03:38:08;2.53;;;2.00;;
24143;SDS011;12307;50.828;6.080;2022-12-07T03:40:41;2.78;;;2.10;;
24143;SDS011;12307;50.828;6.080;2022-12-07T03:43:11;2.90;;;2.00;;
24143;SDS011;12307;50.828;6.080;2022-12-07T03:45:38;2.47;;;2.10;;
24143;SDS011;12307;50.828;6.080;2022-12-07T03:48:07;2.10;;;1.90;;
24143;SDS011;12307;50.828;6.080;2022-12-07T03:50:43;3.05;;;2.35;;
24143;SDS011;12307;50.828;6.080;2022-12-07T03:53:15;2.17;;;1.98;;
24143;SDS011;12307;50.828;6.080;2022-12-07T03:55:45;2.75;;;2.10;;
24143;SDS011;12307;50.828;6.080;2022-12-07T03:58:17;3.03;;;2.33;;
24143;SDS011;12307;50.828;6.080;2022-12-07T04:00:46;2.63;;;2.30;;
24143;SDS011;12307;50.828;6.080;2022-12-07T04:03:13;2.25;;;1.98;;
24143;SDS011;12307;50.828;6.080;2022-12-07T04:05:39;2.40;;;2.20;;
24143;SDS011;12307;50.828;6.080;2022-12-07T04:08:06;2.10;;;1.90;;
24143;SDS011;12307;50.828;6.080;2022-12-07T04:10:32;2.58;;;2.30;;
24143;SDS011;12307;50.828;6.080;2022-12-07T04:12:58;2.30;;;2.10;;
24143;SDS011;12307;50.828;6.080;2022-12-07T04:15:23;2.97;;;2.13;;
24143;SDS011;12307;50.828;6.080;2022-12-07T04:17:49;2.20;;;2.00;;
24143;SDS011;12307;50.828;6.080;2022-12-07T04:20:15;2.83;;;2.38;;
24143;SDS011;12307;50.828;6.080;2022-12-07T04:22:41;2.88;;;2.25;;
24143;SDS011;12307;50.828;6.080;2022-12-07T04:25:08;2.20;;;2.00;;
24143;SDS011;12307;50.828;6.080;2022-12-07T04:27:34;2.90;;;2.33;;
24143;SDS011;12307;50.828;6.080;2022-12-07T04:30:00;3.28;;;2.50;;
24143;SDS011;12307;50.828;6.080;2022-12-07T04:32:26;2.72;;;2.05;;
24143;SDS011;12307;50.828;6.080;2022-12-07T04:34:51;2.95;;;2.20;;
24143;SDS011;12307;50.828;6.080;2022-12-07T04:37:17;2.40;;;2.20;;
24143;SDS011;12307;50.828;6.080;2022-12-07T04:39:43;2.75;;;2.38;;
24143;SDS011;12307;50.828;6.080;2022-12-07T04:42:11;2.63;;;1.92;;
24143;SDS011;12307;50.828;6.080;2022-12-07T04:44:37;2.35;;;2.15;;
24143;SDS011;12307;50.828;6.080;2022-12-07T04:47:03;2.83;;;2.20;;
24143;SDS011;12307;50.828;6.080;2022-12-07T04:49:29;2.47;;;1.95;;
24143;SDS011;12307;50.828;6.080;2022-12-07T04:51:55;2.47;;;2.28;;
24143;SDS011;12307;50.828;6.080;2022-12-07T04:54:20;2.42;;;2.20;;
24143;SDS011;12307;50.828;6.080;2022-12-07T04:56:46;2.25;;;2.00;;
24143;SDS011;12307;50.828;6.080;2022-12-07T04:59:14;2.58;;;2.20;;
24143;SDS011;12307;50.828;6.080;2022-12-07T05:01:40;3.08;;;2.38;;
24143;SDS011;12307;50.828;6.080;2022-12-07T05:04:06;3.08;;;2.45;;
24143;SDS011;12307;50.828;6.080;2022-12-07T05:06:33;2.63;;;2.17;;
24143;SDS011;12307;50.828;6.080;2022-12-07T05:08:58;2.80;;;1.98;;
24143;SDS011;12307;50.828;6.080;2022-12-07T05:11:24;2.63;;;2.10;;
24143;SDS011;12307;50.828;6.080;2022-12-07T05:14:06;2.83;;;2.20;;
24143;SDS011;12307;50.828;6.080;2022-12-07T05:16:35;3.28;;;2.33;;
24143;SDS011;12307;50.828;6.080;2022-12-07T05:19:02;2.60;;;2.20;;
24143;SDS011;12307;50.828;6.080;2022-12-07T05:21:27;3.58;;;2.10;;
24143;SDS011;12307;50.828;6.080;2022-12-07T05:23:53;2.95;;;2.20;;
24143;SDS011;12307;50.828;6.080;2022-12-07T05:26:19;2.90;;;2.28;;
24143;SDS011;12307;50.828;6.080;2022-12-07T05:28:45;3.58;;;2.33;;
24143;SDS011;12307;50.828;6.080;2022-12-07T05:31:14;2.47;;;2.05;;
24143;SDS011;12307;50.828;6.080;2022-12-07T05:33:41;2.70;;;2.50;;
24143;SDS011;12307;50.828;6.080;2022-12-07T05:36:07;3.38;;;2.40;;
24143;SDS011;12307;50.828;6.080;2022-12-07T05:38:32;2.97;;;2.25;;
24143;SDS011;12307;50.828;6.080;2022-12-07T05:40:59;2.70;;;2.10;;
24143;SDS011;12307;50.828;6.080;2022-12-07T05:43:26;2.40;;;2.13;;
24143;SDS011;12307;50.828;6.080;2022-12-07T05:45:52;2.35;;;2.15;;
24143;SDS011;12307;50.828;6.080;2022-12-07T05:48:17;2.22;;;2.00;;
24143;SDS011;12307;50.828;6.080;2022-12-07T05:50:44;2.85;;;2.20;;
24143;SDS011;12307;50.828;6.080;2022-12-07T05:53:12;2.97;;;2.20;;
24143;SDS011;12307;50.828;6.080;2022-12-07T05:55:38;2.42;;;2.22;;
24143;SDS011;12307;50.828;6.080;2022-12-07T05:58:04;2.63;;;2.22;;
24143;SDS011;12307;50.828;6.080;2022-12-07T06:00:48;2.45;;;2.15;;
24143;SDS011;12307;50.828;6.080;2022-12-07T06:03:14;2.20;;;1.92;;
24143;SDS011;12307;50.828;6.080;2022-12-07T06:05:40;2.53;;;2.22;;
24143;SDS011;12307;50.828;6.080;2022-12-07T06:08:07;2.95;;;2.28;;
24143;SDS011;12307;50.828;6.080;2022-12-07T06:10:33;2.80;;;2.28;;
24143;SDS011;12307;50.828;6.080;2022-12-07T06:12:59;3.05;;;2.15;;
24143;SDS011;12307;50.828;6.080;2022-12-07T06:15:24;2.33;;;2.10;;
24143;SDS011;12307;50.828;6.080;2022-12-07T06:17:50;2.20;;;2.00;;
24143;SDS011;12307;50.828;6.080;2022-12-07T06:20:16;2.25;;;2.05;;
24143;SDS011;12307;50.828;6.080;2022-12-07T06:22:41;2.58;;;2.35;;
24143;SDS011;12307;50.828;6.080;2022-12-07T06:25:09;2.72;;;2.22;;
24143;SDS011;12307;50.828;6.080;2022-12-07T06:27:34;2.97;;;2.45;;
24143;SDS011;12307;50.828;6.080;2022-12-07T06:30:00;2.33;;;1.92;;
24143;SDS011;12307;50.828;6.080;2022-12-07T06:32:31;2.17;;;1.92;;
24143;SDS011;12307;50.828;6.080;2022-12-07T06:34:57;2.67;;;2.10;;
24143;SDS011;12307;50.828;6.080;2022-12-07T06:37:22;2.80;;;2.15;;
24143;SDS011;12307;50.828;6.080;2022-12-07T06:39:48;2.83;;;2.33;;
24143;SDS011;12307;50.828;6.080;2022-12-07T06:42:15;3.08;;;2.22;;
24143;SDS011;12307;50.828;6.080;2022-12-07T06:44:40;2.58;;;2.00;;
24143;SDS011;12307;50.828;6.080;2022-12-07T06:47:06;2.28;;;2.08;;
24143;SDS011;12307;50.828;6.080;2022-12-07T06:49:32;2.75;;;2.38;;
24143;SDS011;12307;50.828;6.080;2022-12-07T06:51:58;2.78;;;2.35;;
24143;SDS011;12307;50.828;6.080;2022-12-07T06:54:24;2.35;;;2.15;;
24143;SDS011;12307;50.828;6.080;2022-12-07T06:56:50;2.75;;;2.35;;
24143;SDS011;12307;50.828;6.080;2022-12-07T06:59:17;2.65;;;2.38;;
24143;SDS011;12307;50.828;6.080;2022-12-07T07:01:42;2.55;;;2.22;;
24143;SDS011;12307;50.828;6.080;2022-12-07T07:04:08;2.60;;;2.08;;
24143;SDS011;12307;50.828;6.080;2022-12-07T07:06:34;2.47;;;2.25;;
24143;SDS011;12307;50.828;6.080;2022-12-07T07:08:59;2.20;;;2.00;;
24143;SDS011;12307;50.828;6.080;2022-12-07T07:11:25;2.20;;;2.00;;
24143;SDS011;12307;50.828;6.080;2022-12-07T07:13:51;2.70;;;2.42;;
24143;SDS011;12307;50.828;6.080;2022-12-07T07:16:18;2.60;;;2.20;;
24143;SDS011;12307;50.828;6.080;2022-12-07T07:18:44;2.72;;;2.22;;
24143;SDS011;12307;50.828;6.080;2022-12-07T07:21:09;2.75;;;2.45;;
24143;SDS011;12307;50.828;6.080;2022-12-07T07:23:35;2.50;;;2.30;;
24143;SDS011;12307;50.828;6.080;2022-12-07T07:26:01;2.40;;;2.20;;
24143;SDS011;12307;50.828;6.080;2022-12-07T07:28:26;2.38;;;2.17;;
24143;SDS011;12307;50.828;6.080;2022-12-07T07:30:52;2.70;;;2.22;;
24143;SDS011;12307;50.828;6.080;2022-12-07T07:33:19;2.70;;;2.30;;
24143;SDS011;12307;50.828;6.080;2022-12-07T07:35:45;2.55;;;2.33;;
24143;SDS011;12307;50.828;6.080;2022-12-07T07:38:10;2.65;;;2.40;;
24143;SDS011;12307;50.828;6.080;2022-12-07T07:40:36;2.35;;;2.15;;
24143;SDS011;12307;50.828;6.080;2022-12-07T07:43:02;2.70;;;2.20;;
24143;SDS011;12307;50.828;6.080;2022-12-07T07:45:27;2.90;;;2.20;;
24143;SDS011;12307;50.828;6.080;2022-12-07T07:47:53;2.38;;;2.00;;
24143;SDS011;12307;50.828;6.080;2022-12-07T07:50:20;2.92;;;2.40;;
24143;SDS011;12307;50.828;6.080;2022-12-07T07:52:46;2.38;;;2.17;;
24143;SDS011;12307;50.828;6.080;2022-12-07T07:55:12;2.30;;;2.10;;
24143;SDS011;12307;50.828;6.080;2022-12-07T07:57:39;2.60;;;2.17;;
24143;SDS011;12307;50.828;6.080;2022-12-07T08:00:06;2.80;;;2.20;;
24143;SDS011;12307;50.828;6.080;2022-12-07T08:02:34;2.35;;;2.15;;
24143;SDS011;12307;50.828;6.080;2022-12-07T08:05:00;2.70;;;2.50;;
24143;SDS011;12307;50.828;6.080;2022-12-07T08:07:27;2.85;;;2.30;;
24143;SDS011;12307;50.828;6.080;2022-12-07T08:09:53;3.00;;;2.30;;
24143;SDS011;12307;50.828;6.080;2022-12-07T08:12:19;2.92;;;2.00;;
24143;SDS011;12307;50.828;6.080;2022-12-07T08:14:45;3.35;;;2.40;;
24143;SDS011;12307;50.828;6.080;2022-12-07T08:17:13;3.42;;;2.60;;
24143;SDS011;12307;50.828;6.080;2022-12-07T08:19:39;2.97;;;2.30;;
24143;SDS011;12307;50.828;6.080;2022-12-07T08:22:05;2.85;;;2.30;;
24143;SDS011;12307;50.828;6.080;2022-12-07T08:24:33;4.13;;;2.10;;
24143;SDS011;12307;50.828;6.080;2022-12-07T08:26:59;2.75;;;2.10;;
24143;SDS011;12307;50.828;6.080;2022-12-07T08:29:25;3.17;;;2.30;;
24143;SDS011;12307;50.828;6.080;2022-12-07T08:31:51;3.65;;;2.50;;
24143;SDS011;12307;50.828;6.080;2022-12-07T08:34:17;2.38;;;2.17;;
24143;SDS011;12307;50.828;6.080;2022-12-07T08:36:42;2.58;;;2.15;;
24143;SDS011;12307;50.828;6.080;2022-12-07T08:39:08;4.40;;;2.13;;
24143;SDS011;12307;50.828;6.080;2022-12-07T08:41:35;3.30;;;2.08;;
24143;SDS011;12307;50.828;6.080;2022-12-07T08:44:01;3.17;;;2.00;;
24143;SDS011;12307;50.828;6.080;2022-12-07T08:46:28;6.43;;;2.20;;
24143;SDS011;12307;50.828;6.080;2022-12-07T08:48:58;2.63;;;2.17;;
24143;SDS011;12307;50.828;6.080;2022-12-07T08:51:28;2.38;;;2.17;;
24143;SDS011;12307;50.828;6.080;2022-12-07T08:53:54;3.75;;;2.30;;
24143;SDS011;12307;50.828;6.080;2022-12-07T08:56:21;2.42;;;2.15;;
24143;SDS011;12307;50.828;6.080;2022-12-07T08:58:48;3.90;;;2.15;;
24143;SDS011;12307;50.828;6.080;2022-12-07T09:01:14;3.97;;;2.55;;
24143;SDS011;12307;50.828;6.080;2022-12-07T09:03:40;3.40;;;2.47;;
24143;SDS011;12307;50.828;6.080;2022-12-07T09:06:05;11.25;;;2.30;;
24143;SDS011;12307;50.828;6.080;2022-12-07T09:08:33;5.88;;;2.50;;
24143;SDS011;12307;50.828;6.080;2022-12-07T09:11:01;3.50;;;2.17;;
24143;SDS011;12307;50.828;6.080;2022-12-07T09:13:27;3.65;;;2.25;;
24143;SDS011;12307;50.828;6.080;2022-12-07T09:15:54;4.60;;;2.58;;
24143;SDS011;12307;50.828;6.080;2022-12-07T09:18:19;3.90;;;2.38;;
24143;SDS011;12307;50.828;6.080;2022-12-07T09:20:45;3.33;;;2.30;;
24143;SDS011;12307;50.828;6.080;2022-12-07T09:23:11;2.67;;;2.10;;
24143;SDS011;12307;50.828;6.080;2022-12-07T09:25:36;2.70;;;2.30;;
24143;SDS011;12307;50.828;6.080;2022-12-07T09:28:02;7.93;;;2.55;;
24143;SDS011;12307;50.828;6.080;2022-12-07T09:30:28;2.83;;;2.40;;
24143;SDS011;12307;50.828;6.080;2022-12-07T09:32:55;4.32;;;2.05;;
24143;SDS011;12307;50.828;6.080;2022-12-07T09:35:22;3.00;;;2.40;;
24143;SDS011;12307;50.828;6.080;2022-12-07T09:37:48;3.22;;;2.40;;
24143;SDS011;12307;50.828;6.080;2022-12-07T09:40:14;3.45;;;2.30;;
24143;SDS011;12307;50.828;6.080;2022-12-07T09:42:41;3.67;;;2.40;;
24143;SDS011;12307;50.828;6.080;2022-12-07T09:45:11;2.92;;;2.45;;
24143;SDS011;12307;50.828;6.080;2022-12-07T09:47:39;2.35;;;2.05;;
24143;SDS011;12307;50.828;6.080;2022-12-07T09:50:07;3.42;;;2.40;;
24143;SDS011;12307;50.828;6.080;2022-12-07T09:52:39;4.00;;;2.50;;
24143;SDS011;12307;50.828;6.080;2022-12-07T09:55:09;2.60;;;2.40;;
24143;SDS011;12307;50.828;6.080;2022-12-07T09:57:36;2.92;;;2.45;;
24143;SDS011;12307;50.828;6.080;2022-12-07T10:00:03;3.40;;;2.63;;
24143;SDS011;12307;50.828;6.080;2022-12-07T10:02:36;3.63;;;2.85;;
24143;SDS011;12307;50.828;6.080;2022-12-07T10:05:07;3.30;;;2.72;;
24143;SDS011;12307;50.828;6.080;2022-12-07T10:07:37;4.38;;;2.67;;
24143;SDS011;12307;50.828;6.080;2022-12-07T10:10:03;3.35;;;2.65;;
24143;SDS011;12307;50.828;6.080;2022-12-07T10:12:30;3.78;;;2.80;;
24143;SDS011;12307;50.828;6.080;2022-12-07T10:15:09;3.53;;;2.20;;
24143;SDS011;12307;50.828;6.080;2022-12-07T10:17:36;3.38;;;2.45;;
24143;SDS011;12307;50.828;6.080;2022-12-07T10:20:14;3.05;;;2.50;;
24143;SDS011;12307;50.828;6.080;2022-12-07T10:22:53;3.40;;;2.63;;
24143;SDS011;12307;50.828;6.080;2022-12-07T10:25:25;3.40;;;2.60;;
24143;SDS011;12307;50.828;6.080;2022-12-07T10:27:57;3.88;;;2.80;;
24143;SDS011;12307;50.828;6.080;2022-12-07T10:30:24;3.03;;;2.72;;
24143;SDS011;12307;50.828;6.080;2022-12-07T10:32:49;5.80;;;2.53;;
24143;SDS011;12307;50.828;6.080;2022-12-07T10:35:21;4.95;;;2.40;;
24143;SDS011;12307;50.828;6.080;2022-12-07T10:37:48;4.35;;;2.40;;
24143;SDS011;12307;50.828;6.080;2022-12-07T10:43:05;4.15;;;2.53;;
24143;SDS011;12307;50.828;6.080;2022-12-07T10:45:43;2.97;;;2.35;;
24143;SDS011;12307;50.828;6.080;2022-12-07T10:48:35;3.00;;;2.58;;
24143;SDS011;12307;50.828;6.080;2022-12-07T10:51:14;3.28;;;2.58;;
24143;SDS011;12307;50.828;6.080;2022-12-07T10:53:48;3.33;;;2.50;;
24143;SDS011;12307;50.828;6.080;2022-12-07T10:56:25;3.55;;;2.70;;
24143;SDS011;12307;50.828;6.080;2022-12-07T10:59:04;3.35;;;2.90;;
24143;SDS011;12307;50.828;6.080;2022-12-07T11:01:45;3.95;;;2.50;;
24143;SDS011;12307;50.828;6.080;2022-12-07T11:04:18;3.97;;;2.83;;
24143;SDS011;12307;50.828;6.080;2022-12-07T11:06:54;4.85;;;2.90;;
24143;SDS011;12307;50.828;6.080;2022-12-07T11:09:29;3.60;;;2.95;;
24143;SDS011;12307;50.828;6.080;2022-12-07T11:12:18;2.88;;;2.55;;
24143;SDS011;12307;50.828;6.080;2022-12-07T11:14:52;4.72;;;2.47;;
24143;SDS011;12307;50.828;6.080;2022-12-07T11:17:25;3.28;;;2.60;;
24143;SDS011;12307;50.828;6.080;2022-12-07T11:20:01;3.10;;;2.72;;
24143;SDS011;12307;50.828;6.080;2022-12-07T11:22:36;3.72;;;2.33;;
24143;SDS011;12307;50.828;6.080;2022-12-07T11:25:14;4.32;;;2.60;;
24143;SDS011;12307;50.828;6.080;2022-12-07T11:27:48;3.38;;;2.55;;
24143;SDS011;12307;50.828;6.080;2022-12-07T11:30:28;4.30;;;2.70;;
24143;SDS011;12307;50.828;6.080;2022-12-07T11:33:02;2.85;;;2.45;;
24143;SDS011;12307;50.828;6.080;2022-12-07T11:35:39;3.15;;;2.55;;
24143;SDS011;12307;50.828;6.080;2022-12-07T11:38:13;2.65;;;2.45;;
24143;SDS011;12307;50.828;6.080;2022-12-07T11:40:42;3.55;;;2.83;;
24143;SDS011;12307;50.828;6.080;2022-12-07T11:43:13;4.00;;;2.95;;
24143;SDS011;12307;50.828;6.080;2022-12-07T11:45:46;3.90;;;2.50;;
24143;SDS011;12307;50.828;6.080;2022-12-07T11:48:15;4.22;;;2.88;;
24143;SDS011;12307;50.828;6.080;2022-12-07T11:50:46;5.80;;;2.85;;
24143;SDS011;12307;50.828;6.080;2022-12-07T11:53:17;3.80;;;2.50;;
24143;SDS011;12307;50.828;6.080;2022-12-07T11:55:47;3.40;;;2.47;;
24143;SDS011;12307;50.828;6.080;2022-12-07T11:58:23;3.35;;;2.50;;
24143;SDS011;12307;50.828;6.080;2022-12-07T12:01:04;4.65;;;2.70;;
24143;SDS011;12307;50.828;6.080;2022-12-07T12:03:44;3.17;;;2.55;;
24143;SDS011;12307;50.828;6.080;2022-12-07T12:06:11;4.00;;;2.40;;
24143;SDS011;12307;50.828;6.080;2022-12-07T12:08:40;3.72;;;2.60;;
24143;SDS011;12307;50.828;6.080;2022-12-07T12:11:12;3.55;;;2.42;;
24143;SDS011;12307;50.828;6.080;2022-12-07T12:14:05;3.28;;;2.70;;
24143;SDS011;12307;50.828;6.080;2022-12-07T12:17:01;5.07;;;2.88;;
24143;SDS011;12307;50.828;6.080;2022-12-07T12:19:41;5.50;;;2.78;;
24143;SDS011;12307;50.828;6.080;2022-12-07T12:22:14;3.38;;;2.78;;
24143;SDS011;12307;50.828;6.080;2022-12-07T12:24:43;4.28;;;2.95;;
24143;SDS011;12307;50.828;6.080;2022-12-07T12:27:15;3.83;;;2.50;;
24143;SDS011;12307;50.828;6.080;2022-12-07T12:29:45;3.10;;;2.58;;
24143;SDS011;12307;50.828;6.080;2022-12-07T12:32:18;4.85;;;2.90;;
24143;SDS011;12307;50.828;6.080;2022-12-07T12:35:02;3.38;;;2.80;;
24143;SDS011;12307;50.828;6.080;2022-12-07T12:37:43;3.95;;;2.38;;
24143;SDS011;12307;50.828;6.080;2022-12-07T12:49:38;4.20;;;2.53;;
24143;SDS011;12307;50.828;6.080;2022-12-07T12:55:13;4.95;;;2.60;;
24143;SDS011;12307;50.828;6.080;2022-12-07T12:57:47;3.03;;;2.47;;
24143;SDS011;12307;50.828;6.080;2022-12-07T13:00:33;3.45;;;2.63;;
24143;SDS011;12307;50.828;6.080;2022-12-07T13:02:59;3.80;;;2.78;;
24143;SDS011;12307;50.828;6.080;2022-12-07T13:05:28;4.72;;;2.80;;
24143;SDS011;12307;50.828;6.080;2022-12-07T13:07:59;5.88;;;2.88;;
24143;SDS011;12307;50.828;6.080;2022-12-07T13:10:36;5.50;;;2.63;;
24143;SDS011;12307;50.828;6.080;2022-12-07T13:18:55;3.58;;;2.70;;
24143;SDS011;12307;50.828;6.080;2022-12-07T13:24:06;5.85;;;2.75;;
24143;SDS011;12307;50.828;6.080;2022-12-07T13:26:35;4.03;;;2.67;;
24143;SDS011;12307;50.828;6.080;2022-12-07T13:29:09;5.82;;;2.80;;
24143;SDS011;12307;50.828;6.080;2022-12-07T13:31:38;4.63;;;2.80;;
24143;SDS011;12307;50.828;6.080;2022-12-07T13:36:55;3.95;;;2.58;;
24143;SDS011;12307;50.828;6.080;2022-12-07T13:39:22;3.45;;;2.78;;
24143;SDS011;12307;50.828;6.080;2022-12-07T13:41:50;5.43;;;2.60;;
24143;SDS011;12307;50.828;6.080;2022-12-07T13:44:18;4.68;;;2.80;;
24143;SDS011;12307;50.828;6.080;2022-12-07T13:46:46;3.00;;;2.40;;
24143;SDS011;12307;50.828;6.080;2022-12-07T13:49:19;4.75;;;2.80;;
24143;SDS011;12307;50.828;6.080;2022-12-07T13:51:47;3.90;;;2.60;;
24143;SDS011;12307;50.828;6.080;2022-12-07T13:54:13;3.95;;;2.70;;
24143;SDS011;12307;50.828;6.080;2022-12-07T13:56:39;3.20;;;2.30;;
24143;SDS011;12307;50.828;6.080;2022-12-07T13:59:07;3.00;;;2.67;;
24143;SDS011;12307;50.828;6.080;2022-12-07T14:01:40;4.13;;;2.47;;
24143;SDS011;12307;50.828;6.080;2022-12-07T14:04:24;3.60;;;2.70;;
24143;SDS011;12307;50.828;6.080;2022-12-07T14:06:55;3.65;;;2.60;;
24143;SDS011;12307;50.828;6.080;2022-12-07T14:09:22;2.55;;;2.33;;
24143;SDS011;12307;50.828;6.080;2022-12-07T14:11:49;5.15;;;2.58;;
24143;SDS011;12307;50.828;6.080;2022-12-07T14:14:18;3.17;;;2.55;;
24143;SDS011;12307;50.828;6.080;2022-12-07T14:16:55;3.30;;;2.53;;
24143;SDS011;12307;50.828;6.080;2022-12-07T14:22:25;5.25;;;2.47;;
24143;SDS011;12307;50.828;6.080;2022-12-07T14:25:14;4.13;;;2.67;;
24143;SDS011;12307;50.828;6.080;2022-12-07T14:27:47;6.28;;;2.53;;
24143;SDS011;12307;50.828;6.080;2022-12-07T14:30:16;3.15;;;2.60;;
24143;SDS011;12307;50.828;6.080;2022-12-07T14:32:44;5.20;;;2.50;;
24143;SDS011;12307;50.828;6.080;2022-12-07T14:35:14;5.28;;;2.90;;
24143;SDS011;12307;50.828;6.080;2022-12-07T14:37:41;3.38;;;2.47;;
24143;SDS011;12307;50.828;6.080;2022-12-07T14:40:12;3.78;;;2.60;;
24143;SDS011;12307;50.828;6.080;2022-12-07T14:42:38;4.78;;;2.60;;
24143;SDS011;12307;50.828;6.080;2022-12-07T14:45:05;4.70;;;2.50;;
24143;SDS011;12307;50.828;6.080;2022-12-07T14:47:37;5.38;;;2.60;;
24143;SDS011;12307;50.828;6.080;2022-12-07T14:50:05;3.85;;;2.50;;
24143;SDS011;12307;50.828;6.080;2022-12-07T14:52:32;3.05;;;2.45;;
24143;SDS011;12307;50.828;6.080;2022-12-07T14:54:58;3.67;;;2.38;;
24143;SDS011;12307;50.828;6.080;2022-12-07T14:57:24;4.15;;;2.53;;
24143;SDS011;12307;50.828;6.080;2022-12-07T14:59:49;3.42;;;2.63;;
24143;SDS011;12307;50.828;6.080;2022-12-07T15:02:15;3.33;;;2.60;;
24143;SDS011;12307;50.828;6.080;2022-12-07T15:04:41;5.15;;;2.83;;
24143;SDS011;12307;50.828;6.080;2022-12-07T15:07:10;2.95;;;2.33;;
24143;SDS011;12307;50.828;6.080;2022-12-07T15:09:42;4.88;;;3.10;;
24143;SDS011;12307;50.828;6.080;2022-12-07T15:12:07;4.63;;;2.83;;
24143;SDS011;12307;50.828;6.080;2022-12-07T15:14:33;3.72;;;2.78;;
24143;SDS011;12307;50.828;6.080;2022-12-07T15:16:59;4.88;;;2.65;;
24143;SDS011;12307;50.828;6.080;2022-12-07T15:19:25;3.72;;;2.53;;
24143;SDS011;12307;50.828;6.080;2022-12-07T15:21:51;5.15;;;2.65;;
24143;SDS011;12307;50.828;6.080;2022-12-07T15:24:18;4.80;;;2.63;;
24143;SDS011;12307;50.828;6.080;2022-12-07T15:26:45;4.72;;;2.50;;
24143;SDS011;12307;50.828;6.080;2022-12-07T15:29:11;3.45;;;2.40;;
24143;SDS011;12307;50.828;6.080;2022-12-07T15:31:37;3.55;;;2.75;;